sensor_id;sensor_type;location;lat;lon;timestamp;pressure;altitude;pressure_sealevel;temperature;humidity
55801;BME280;41730;51.960;20.158;2023-04-24T00:02:10;99260.39;;;13.08;56.47
55801;BME280;41730;51.960;20.158;2023-04-24T00:04:52;99269.27;;;12.92;56.71
55801;BME280;41730;51.960;20.158;2023-04-24T00:07:36;99268.19;;;12.88;57.15
55801;BME280;41730;51.960;20.158;2023-04-24T00:10:18;99255.55;;;12.94;56.94
55801;BME280;41730;51.960;20.158;2023-04-24T00:12:53;99260.61;;;13.08;56.54
55801;BME280;41730;51.960;20.158;2023-04-24T00:15:37;99266.88;;;12.98;57.14
55801;BME280;41730;51.960;20.158;2023-04-24T00:18:11;99264.64;;;12.94;57.12
55801;BME280;41730;51.960;20.158;2023-04-24T00:20:45;99263.77;;;12.91;57.31
55801;BME280;41730;51.960;20.158;2023-04-24T00:23:17;99261.23;;;12.95;57.19
55801;BME280;41730;51.960;20.158;2023-04-24T00:26:03;99264.98;;;12.93;57.42
55801;BME280;41730;51.960;20.158;2023-04-24T00:28:39;99264.16;;;12.84;57.29
55801;BME280;41730;51.960;20.158;2023-04-24T00:31:23;99264.40;;;12.82;57.40
55801;BME280;41730;51.960;20.158;2023-04-24T00:34:01;99262.25;;;12.73;57.56
55801;BME280;41730;51.960;20.158;2023-04-24T00:36:36;99260.69;;;12.67;57.68
55801;BME280;41730;51.960;20.158;2023-04-24T00:39:08;99254.46;;;12.70;57.67
55801;BME280;41730;51.960;20.158;2023-04-24T00:41:40;99263.69;;;12.71;57.07
55801;BME280;41730;51.960;20.158;2023-04-24T00:44:12;99260.12;;;12.58;57.64
55801;BME280;41730;51.960;20.158;2023-04-24T00:46:47;99258.90;;;12.51;58.09
55801;BME280;41730;51.960;20.158;2023-04-24T00:49:29;99259.11;;;12.64;58.16
55801;BME280;41730;51.960;20.158;2023-04-24T00:52:04;99254.73;;;12.77;57.53
55801;BME280;41730;51.960;20.158;2023-04-24T00:54:39;99255.98;;;12.77;57.49
55801;BME280;41730;51.960;20.158;2023-04-24T00:57:11;99254.73;;;12.78;57.67
55801;BME280;41730;51.960;20.158;2023-04-24T00:59:45;99253.41;;;12.73;57.67
55801;BME280;41730;51.960;20.158;2023-04-24T01:02:31;99255.31;;;12.55;58.20
55801;BME280;41730;51.960;20.158;2023-04-24T01:05:07;99255.63;;;12.53;58.19
55801;BME280;41730;51.960;20.158;2023-04-24T01:07:46;99254.58;;;12.50;58.38
55801;BME280;41730;51.960;20.158;2023-04-24T01:10:19;99251.91;;;12.49;58.19
55801;BME280;41730;51.960;20.158;2023-04-24T01:12:51;99250.78;;;12.53;58.69
55801;BME280;41730;51.960;20.158;2023-04-24T01:15:35;99251.62;;;12.62;58.23
55801;BME280;41730;51.960;20.158;2023-04-24T01:18:08;99255.39;;;12.54;58.38
55801;BME280;41730;51.960;20.158;2023-04-24T01:20:49;99251.95;;;12.39;58.83
55801;BME280;41730;51.960;20.158;2023-04-24T01:23:24;99250.55;;;12.45;58.70
55801;BME280;41730;51.960;20.158;2023-04-24T01:26:01;99241.02;;;12.45;58.51
55801;BME280;41730;51.960;20.158;2023-04-24T01:28:42;99242.83;;;12.40;58.53
55801;BME280;41730;51.960;20.158;2023-04-24T01:31:18;99241.90;;;12.24;58.81
55801;BME280;41730;51.960;20.158;2023-04-24T01:33:52;99236.84;;;12.08;59.31
55801;BME280;41730;51.960;20.158;2023-04-24T01:36:24;99237.79;;;12.11;59.14
55801;BME280;41730;51.960;20.158;2023-04-24T01:38:57;99237.11;;;12.10;59.10
55801;BME280;41730;51.960;20.158;2023-04-24T01:41:41;99232.81;;;12.11;58.89
55801;BME280;41730;51.960;20.158;2023-04-24T01:44:13;99230.14;;;12.12;59.27
55801;BME280;41730;51.960;20.158;2023-04-24T01:46:49;99226.85;;;12.11;59.05
55801;BME280;41730;51.960;20.158;2023-04-24T01:49:26;99229.75;;;12.12;59.15
55801;BME280;41730;51.960;20.158;2023-04-24T01:52:02;99218.84;;;12.14;58.71
55801;BME280;41730;51.960;20.158;2023-04-24T01:54:34;99222.80;;;12.20;58.69
55801;BME280;41730;51.960;20.158;2023-04-24T01:57:09;99221.88;;;12.13;59.05
55801;BME280;41730;51.960;20.158;2023-04-24T01:59:42;99221.62;;;12.04;59.19
55801;BME280;41730;51.960;20.158;2023-04-24T02:02:15;99217.69;;;11.97;59.34
55801;BME280;41730;51.960;20.158;2023-04-24T02:04:52;99213.63;;;11.97;59.50
55801;BME280;41730;51.960;20.158;2023-04-24T02:07:25;99213.45;;;11.92;59.81
55801;BME280;41730;51.960;20.158;2023-04-24T02:10:06;99210.95;;;11.94;59.59
55801;BME280;41730;51.960;20.158;2023-04-24T02:12:40;99208.41;;;11.88;59.79
55801;BME280;41730;51.960;20.158;2023-04-24T02:15:13;99209.11;;;11.95;59.48
55801;BME280;41730;51.960;20.158;2023-04-24T02:17:47;99204.33;;;11.88;59.71
55801;BME280;41730;51.960;20.158;2023-04-24T02:20:20;99202.13;;;11.87;59.99
55801;BME280;41730;51.960;20.158;2023-04-24T02:22:54;99199.64;;;11.84;59.53
55801;BME280;41730;51.960;20.158;2023-04-24T02:25:26;99194.19;;;11.74;59.89
55801;BME280;41730;51.960;20.158;2023-04-24T02:28:07;99195.40;;;11.72;60.14
55801;BME280;41730;51.960;20.158;2023-04-24T02:30:39;99194.14;;;11.69;60.18
55801;BME280;41730;51.960;20.158;2023-04-24T02:33:13;99188.81;;;11.61;60.45
55801;BME280;41730;51.960;20.158;2023-04-24T02:35:49;99192.39;;;11.62;60.57
55801;BME280;41730;51.960;20.158;2023-04-24T02:38:25;99180.89;;;11.65;60.25
55801;BME280;41730;51.960;20.158;2023-04-24T02:41:03;99183.66;;;11.67;60.26
55801;BME280;41730;51.960;20.158;2023-04-24T02:43:39;99182.73;;;11.71;60.24
55801;BME280;41730;51.960;20.158;2023-04-24T02:46:13;99182.66;;;11.63;60.20
55801;BME280;41730;51.960;20.158;2023-04-24T02:48:46;99178.00;;;11.56;60.42
55801;BME280;41730;51.960;20.158;2023-04-24T02:51:19;99175.10;;;11.55;60.43
55801;BME280;41730;51.960;20.158;2023-04-24T02:53:55;99176.80;;;11.54;60.52
55801;BME280;41730;51.960;20.158;2023-04-24T02:59:05;99173.19;;;11.41;60.63
55801;BME280;41730;51.960;20.158;2023-04-24T03:01:40;99174.97;;;11.39;60.69
55801;BME280;41730;51.960;20.158;2023-04-24T03:04:12;99169.91;;;11.42;60.85
55801;BME280;41730;51.960;20.158;2023-04-24T03:06:59;99171.34;;;11.54;60.35
55801;BME280;41730;51.960;20.158;2023-04-24T03:09:44;99174.30;;;11.56;60.25
55801;BME280;41730;51.960;20.158;2023-04-24T03:12:45;99172.08;;;11.74;59.73
55801;BME280;41730;51.960;20.158;2023-04-24T03:15:26;99175.09;;;11.70;59.76
55801;BME280;41730;51.960;20.158;2023-04-24T03:17:59;99175.48;;;11.61;60.05
55801;BME280;41730;51.960;20.158;2023-04-24T03:20:34;99172.02;;;11.61;60.09
55801;BME280;41730;51.960;20.158;2023-04-24T03:23:07;99175.36;;;11.47;60.15
55801;BME280;41730;51.960;20.158;2023-04-24T03:25:45;99167.16;;;11.33;60.53
55801;BME280;41730;51.960;20.158;2023-04-24T03:28:21;99172.88;;;11.30;60.63
55801;BME280;41730;51.960;20.158;2023-04-24T03:30:56;99173.39;;;11.37;60.43
55801;BME280;41730;51.960;20.158;2023-04-24T03:33:30;99178.62;;;11.48;60.09
55801;BME280;41730;51.960;20.158;2023-04-24T03:36:04;99177.12;;;11.44;60.20
55801;BME280;41730;51.960;20.158;2023-04-24T03:38:42;99178.22;;;11.33;60.43
55801;BME280;41730;51.960;20.158;2023-04-24T03:41:31;99176.53;;;11.25;60.52
55801;BME280;41730;51.960;20.158;2023-04-24T03:44:13;99174.73;;;11.34;60.52
55801;BME280;41730;51.960;20.158;2023-04-24T03:47:01;99172.46;;;11.45;60.17
55801;BME280;41730;51.960;20.158;2023-04-24T03:49:47;99175.08;;;11.45;60.30
55801;BME280;41730;51.960;20.158;2023-04-24T03:52:34;99171.29;;;11.49;60.22
55801;BME280;41730;51.960;20.158;2023-04-24T03:55:23;99168.85;;;11.42;60.28
55801;BME280;41730;51.960;20.158;2023-04-24T03:58:09;99169.44;;;11.47;60.60
55801;BME280;41730;51.960;20.158;2023-04-24T04:00:53;99170.03;;;11.56;60.36
55801;BME280;41730;51.960;20.158;2023-04-24T04:03:36;99168.66;;;11.56;60.54
55801;BME280;41730;51.960;20.158;2023-04-24T04:06:20;99172.27;;;11.72;60.14
55801;BME280;41730;51.960;20.158;2023-04-24T04:09:15;99170.76;;;11.68;60.12
55801;BME280;41730;51.960;20.158;2023-04-24T04:12:03;99171.41;;;11.78;60.11
55801;BME280;41730;51.960;20.158;2023-04-24T04:14:35;99168.98;;;11.84;59.90
55801;BME280;41730;51.960;20.158;2023-04-24T04:17:06;99170.65;;;11.88;60.04
55801;BME280;41730;51.960;20.158;2023-04-24T04:19:42;99170.36;;;11.89;60.19
55801;BME280;41730;51.960;20.158;2023-04-24T04:22:17;99164.35;;;11.98;60.29
55801;BME280;41730;51.960;20.158;2023-04-24T04:24:49;99176.65;;;12.20;61.30
55801;BME280;41730;51.960;20.158;2023-04-24T04:27:27;99175.39;;;12.44;62.22
55801;BME280;41730;51.960;20.158;2023-04-24T04:30:03;99170.86;;;12.88;61.82
55801;BME280;41730;51.960;20.158;2023-04-24T04:32:35;99166.04;;;13.27;60.81
55801;BME280;41730;51.960;20.158;2023-04-24T04:35:08;99165.70;;;13.43;60.38
55801;BME280;41730;51.960;20.158;2023-04-24T04:37:39;99160.73;;;13.47;60.06
55801;BME280;41730;51.960;20.158;2023-04-24T04:40:15;99161.49;;;13.56;59.18
55801;BME280;41730;51.960;20.158;2023-04-24T04:42:56;99161.23;;;13.57;59.06
55801;BME280;41730;51.960;20.158;2023-04-24T04:45:31;99159.90;;;13.56;58.71
55801;BME280;41730;51.960;20.158;2023-04-24T04:48:10;99160.30;;;13.51;59.31
55801;BME280;41730;51.960;20.158;2023-04-24T04:50:44;99162.18;;;13.56;59.69
55801;BME280;41730;51.960;20.158;2023-04-24T04:53:16;99160.79;;;13.78;59.59
55801;BME280;41730;51.960;20.158;2023-04-24T04:55:48;99159.42;;;13.99;58.69
55801;BME280;41730;51.960;20.158;2023-04-24T04:58:20;99158.89;;;14.05;58.31
55801;BME280;41730;51.960;20.158;2023-04-24T05:00:51;99156.42;;;14.02;58.04
55801;BME280;41730;51.960;20.158;2023-04-24T05:03:24;99161.16;;;14.10;57.59
55801;BME280;41730;51.960;20.158;2023-04-24T05:05:57;99169.10;;;13.99;57.60
55801;BME280;41730;51.960;20.158;2023-04-24T05:08:29;99167.90;;;13.90;57.68
55801;BME280;41730;51.960;20.158;2023-04-24T05:11:01;99163.27;;;13.77;57.93
55801;BME280;41730;51.960;20.158;2023-04-24T05:13:36;99163.95;;;13.61;58.21
55801;BME280;41730;51.960;20.158;2023-04-24T05:16:13;99162.73;;;13.50;58.66
55801;BME280;41730;51.960;20.158;2023-04-24T05:18:49;99160.02;;;13.53;58.30
55801;BME280;41730;51.960;20.158;2023-04-24T05:21:28;99161.95;;;13.58;58.14
55801;BME280;41730;51.960;20.158;2023-04-24T05:24:04;99161.80;;;13.59;58.26
55801;BME280;41730;51.960;20.158;2023-04-24T05:26:38;99154.12;;;13.57;58.18
55801;BME280;41730;51.960;20.158;2023-04-24T05:29:15;99154.87;;;13.62;58.39
55801;BME280;41730;51.960;20.158;2023-04-24T05:31:52;99157.48;;;13.60;58.47
55801;BME280;41730;51.960;20.158;2023-04-24T05:34:28;99159.20;;;13.67;58.32
55801;BME280;41730;51.960;20.158;2023-04-24T05:37:00;99156.34;;;13.62;58.43
55801;BME280;41730;51.960;20.158;2023-04-24T05:39:32;99156.99;;;13.58;58.73
55801;BME280;41730;51.960;20.158;2023-04-24T05:42:06;99155.13;;;13.62;58.97
55801;BME280;41730;51.960;20.158;2023-04-24T05:44:41;99154.85;;;13.65;58.94
55801;BME280;41730;51.960;20.158;2023-04-24T05:47:13;99154.43;;;13.75;58.94
55801;BME280;41730;51.960;20.158;2023-04-24T05:49:45;99157.63;;;13.95;58.91
55801;BME280;41730;51.960;20.158;2023-04-24T05:52:17;99153.45;;;14.27;58.09
55801;BME280;41730;51.960;20.158;2023-04-24T05:54:49;99151.52;;;14.35;57.89
55801;BME280;41730;51.960;20.158;2023-04-24T05:57:24;99152.49;;;14.35;58.35
55801;BME280;41730;51.960;20.158;2023-04-24T05:59:56;99143.75;;;14.51;57.95
55801;BME280;41730;51.960;20.158;2023-04-24T06:02:28;99147.38;;;14.70;57.81
55801;BME280;41730;51.960;20.158;2023-04-24T06:05:03;99140.48;;;14.86;57.42
55801;BME280;41730;51.960;20.158;2023-04-24T06:07:35;99138.86;;;15.08;57.15
55801;BME280;41730;51.960;20.158;2023-04-24T06:10:09;99138.08;;;15.25;56.86
55801;BME280;41730;51.960;20.158;2023-04-24T06:12:41;99141.75;;;15.45;56.66
55801;BME280;41730;51.960;20.158;2023-04-24T06:15:13;99137.38;;;15.53;56.53
55801;BME280;41730;51.960;20.158;2023-04-24T06:17:45;99138.83;;;15.62;56.61
55801;BME280;41730;51.960;20.158;2023-04-24T06:20:18;99145.60;;;15.85;56.17
55801;BME280;41730;51.960;20.158;2023-04-24T06:22:51;99163.71;;;15.91;56.09
55801;BME280;41730;51.960;20.158;2023-04-24T06:25:26;99162.70;;;15.97;56.39
55801;BME280;41730;51.960;20.158;2023-04-24T06:27:58;99156.39;;;16.21;56.17
55801;BME280;41730;51.960;20.158;2023-04-24T06:30:31;99153.39;;;16.47;55.70
55801;BME280;41730;51.960;20.158;2023-04-24T06:33:05;99152.92;;;16.69;55.53
55801;BME280;41730;51.960;20.158;2023-04-24T06:39:35;99136.02;;;17.26;54.33
55801;BME280;41730;51.960;20.158;2023-04-24T06:42:25;99137.73;;;17.33;54.13
55801;BME280;41730;51.960;20.158;2023-04-24T06:45:00;99141.64;;;17.48;53.72
55801;BME280;41730;51.960;20.158;2023-04-24T06:47:36;99143.80;;;17.48;53.48
55801;BME280;41730;51.960;20.158;2023-04-24T06:50:19;99143.66;;;17.52;53.64
55801;BME280;41730;51.960;20.158;2023-04-24T06:56:00;99138.70;;;17.70;53.30
55801;BME280;41730;51.960;20.158;2023-04-24T06:58:34;99141.60;;;17.83;52.91
55801;BME280;41730;51.960;20.158;2023-04-24T07:01:11;99146.33;;;17.90;52.94
55801;BME280;41730;51.960;20.158;2023-04-24T07:03:47;99142.98;;;18.01;52.65
55801;BME280;41730;51.960;20.158;2023-04-24T07:06:21;99147.41;;;18.03;52.53
55801;BME280;41730;51.960;20.158;2023-04-24T07:08:54;99138.81;;;17.97;52.62
55801;BME280;41730;51.960;20.158;2023-04-24T07:11:28;99146.97;;;18.21;52.32
55801;BME280;41730;51.960;20.158;2023-04-24T07:14:31;99148.63;;;18.28;52.44
55801;BME280;41730;51.960;20.158;2023-04-24T07:17:16;99145.59;;;18.43;52.36
55801;BME280;41730;51.960;20.158;2023-04-24T07:19:58;99144.79;;;18.68;52.26
55801;BME280;41730;51.960;20.158;2023-04-24T07:22:36;99139.38;;;19.12;51.80
55801;BME280;41730;51.960;20.158;2023-04-24T07:25:21;99134.80;;;19.52;51.49
55801;BME280;41730;51.960;20.158;2023-04-24T07:28:06;99135.52;;;20.09;51.15
55801;BME280;41730;51.960;20.158;2023-04-24T07:30:41;99137.43;;;20.70;50.20
55801;BME280;41730;51.960;20.158;2023-04-24T07:33:17;99132.64;;;21.13;49.12
55801;BME280;41730;51.960;20.158;2023-04-24T07:35:51;99127.88;;;21.39;48.68
55801;BME280;41730;51.960;20.158;2023-04-24T07:38:25;99127.77;;;21.69;48.08
55801;BME280;41730;51.960;20.158;2023-04-24T07:40:58;99128.80;;;21.91;47.42
55801;BME280;41730;51.960;20.158;2023-04-24T07:43:30;99126.55;;;21.87;47.29
55801;BME280;41730;51.960;20.158;2023-04-24T07:46:03;99125.64;;;22.04;47.32
55801;BME280;41730;51.960;20.158;2023-04-24T07:48:52;99121.45;;;22.24;46.76
55801;BME280;41730;51.960;20.158;2023-04-24T07:51:42;99119.55;;;22.55;46.36
55801;BME280;41730;51.960;20.158;2023-04-24T07:54:20;99111.33;;;22.75;45.60
55801;BME280;41730;51.960;20.158;2023-04-24T07:56:55;99113.48;;;23.00;45.06
55801;BME280;41730;51.960;20.158;2023-04-24T07:59:29;99115.25;;;23.08;44.45
55801;BME280;41730;51.960;20.158;2023-04-24T08:02:01;99117.64;;;23.00;43.65
55801;BME280;41730;51.960;20.158;2023-04-24T08:04:34;99117.31;;;22.74;43.35
55801;BME280;41730;51.960;20.158;2023-04-24T08:07:07;99120.02;;;22.55;43.36
55801;BME280;41730;51.960;20.158;2023-04-24T08:09:41;99118.16;;;22.35;43.16
55801;BME280;41730;51.960;20.158;2023-04-24T08:12:14;99123.65;;;22.14;43.40
55801;BME280;41730;51.960;20.158;2023-04-24T08:14:47;99123.56;;;22.08;43.47
55801;BME280;41730;51.960;20.158;2023-04-24T08:17:21;99117.73;;;22.07;43.51
55801;BME280;41730;51.960;20.158;2023-04-24T08:19:54;99121.15;;;22.10;43.28
55801;BME280;41730;51.960;20.158;2023-04-24T08:22:32;99121.08;;;22.34;43.11
55801;BME280;41730;51.960;20.158;2023-04-24T08:25:06;99121.71;;;22.60;42.66
55801;BME280;41730;51.960;20.158;2023-04-24T08:27:39;99121.84;;;22.75;41.98
55801;BME280;41730;51.960;20.158;2023-04-24T08:30:14;99116.34;;;22.85;41.90
55801;BME280;41730;51.960;20.158;2023-04-24T08:32:51;99113.31;;;23.20;41.01
55801;BME280;41730;51.960;20.158;2023-04-24T08:35:25;99107.45;;;23.46;40.56
55801;BME280;41730;51.960;20.158;2023-04-24T08:37:58;99108.83;;;23.55;40.24
55801;BME280;41730;51.960;20.158;2023-04-24T08:40:34;99109.04;;;23.61;40.04
55801;BME280;41730;51.960;20.158;2023-04-24T08:43:11;99109.91;;;23.77;39.29
55801;BME280;41730;51.960;20.158;2023-04-24T08:45:49;99104.19;;;23.93;38.83
55801;BME280;41730;51.960;20.158;2023-04-24T08:48:34;99108.23;;;24.10;38.53
55801;BME280;41730;51.960;20.158;2023-04-24T08:51:23;99105.04;;;24.10;38.42
55801;BME280;41730;51.960;20.158;2023-04-24T08:54:07;99102.83;;;24.20;38.27
55801;BME280;41730;51.960;20.158;2023-04-24T08:56:54;99096.98;;;24.33;37.92
55801;BME280;41730;51.960;20.158;2023-04-24T08:59:52;99103.47;;;24.43;37.46
55801;BME280;41730;51.960;20.158;2023-04-24T09:02:35;99095.02;;;24.51;36.79
55801;BME280;41730;51.960;20.158;2023-04-24T09:05:23;99099.48;;;24.64;37.22
55801;BME280;41730;51.960;20.158;2023-04-24T09:07:59;99102.65;;;24.83;36.98
55801;BME280;41730;51.960;20.158;2023-04-24T09:10:36;99101.20;;;24.94;36.69
55801;BME280;41730;51.960;20.158;2023-04-24T09:13:11;99097.17;;;24.99;36.45
55801;BME280;41730;51.960;20.158;2023-04-24T09:15:55;99101.81;;;25.19;36.01
55801;BME280;41730;51.960;20.158;2023-04-24T09:18:28;99102.11;;;25.33;36.14
55801;BME280;41730;51.960;20.158;2023-04-24T09:21:02;99105.15;;;25.35;35.55
55801;BME280;41730;51.960;20.158;2023-04-24T09:23:36;99101.98;;;25.33;35.34
55801;BME280;41730;51.960;20.158;2023-04-24T09:26:10;99097.73;;;25.32;35.04
55801;BME280;41730;51.960;20.158;2023-04-24T09:28:48;99098.58;;;25.26;34.45
55801;BME280;41730;51.960;20.158;2023-04-24T09:31:24;99094.83;;;25.23;34.05
55801;BME280;41730;51.960;20.158;2023-04-24T09:34:04;99091.36;;;25.18;34.46
55801;BME280;41730;51.960;20.158;2023-04-24T09:36:49;99087.63;;;25.19;34.64
55801;BME280;41730;51.960;20.158;2023-04-24T09:39:24;99090.06;;;25.14;34.22
55801;BME280;41730;51.960;20.158;2023-04-24T09:41:57;99087.00;;;25.16;34.08
55801;BME280;41730;51.960;20.158;2023-04-24T09:44:30;99084.31;;;25.18;34.39
55801;BME280;41730;51.960;20.158;2023-04-24T09:47:10;99081.15;;;25.26;34.45
55801;BME280;41730;51.960;20.158;2023-04-24T09:49:42;99082.16;;;25.35;34.46
55801;BME280;41730;51.960;20.158;2023-04-24T09:52:17;99082.34;;;25.28;34.06
55801;BME280;41730;51.960;20.158;2023-04-24T09:54:54;99076.04;;;25.19;34.07
55801;BME280;41730;51.960;20.158;2023-04-24T09:57:27;99072.98;;;25.13;34.58
55801;BME280;41730;51.960;20.158;2023-04-24T10:00:00;99073.81;;;25.25;34.43
55801;BME280;41730;51.960;20.158;2023-04-24T10:02:33;99059.56;;;25.36;34.39
55801;BME280;41730;51.960;20.158;2023-04-24T10:05:09;99062.24;;;25.40;34.24
55801;BME280;41730;51.960;20.158;2023-04-24T10:07:54;99059.91;;;25.38;34.58
55801;BME280;41730;51.960;20.158;2023-04-24T10:10:42;99055.20;;;25.45;34.21
55801;BME280;41730;51.960;20.158;2023-04-24T10:16:20;99055.92;;;25.56;34.17
55801;BME280;41730;51.960;20.158;2023-04-24T10:19:04;99053.70;;;25.56;34.34
55801;BME280;41730;51.960;20.158;2023-04-24T10:21:50;99045.09;;;25.50;34.41
55801;BME280;41730;51.960;20.158;2023-04-24T10:24:25;99037.06;;;25.56;33.95
55801;BME280;41730;51.960;20.158;2023-04-24T10:27:07;99035.73;;;25.62;33.77
55801;BME280;41730;51.960;20.158;2023-04-24T10:29:45;99033.16;;;25.69;33.70
55801;BME280;41730;51.960;20.158;2023-04-24T10:32:23;99032.95;;;25.64;33.68
55801;BME280;41730;51.960;20.158;2023-04-24T10:34:59;99027.45;;;25.42;33.25
55801;BME280;41730;51.960;20.158;2023-04-24T10:37:39;99023.15;;;25.28;33.33
55801;BME280;41730;51.960;20.158;2023-04-24T10:40:30;99011.05;;;25.12;33.02
55801;BME280;41730;51.960;20.158;2023-04-24T10:43:07;99007.99;;;25.09;32.08
55801;BME280;41730;51.960;20.158;2023-04-24T10:46:08;99001.39;;;25.09;32.00
55801;BME280;41730;51.960;20.158;2023-04-24T10:48:53;99008.64;;;25.04;32.43
55801;BME280;41730;51.960;20.158;2023-04-24T10:51:47;99005.59;;;25.09;32.50
55801;BME280;41730;51.960;20.158;2023-04-24T10:54:28;99003.42;;;25.13;31.84
55801;BME280;41730;51.960;20.158;2023-04-24T10:57:27;98997.75;;;24.98;31.14
55801;BME280;41730;51.960;20.158;2023-04-24T11:04:07;98990.25;;;25.00;31.43
55801;BME280;41730;51.960;20.158;2023-04-24T11:06:42;98983.30;;;24.99;31.39
55801;BME280;41730;51.960;20.158;2023-04-24T11:09:16;98986.38;;;25.05;31.00
55801;BME280;41730;51.960;20.158;2023-04-24T11:11:49;98982.45;;;25.00;31.09
55801;BME280;41730;51.960;20.158;2023-04-24T11:14:21;98986.23;;;24.92;31.54
55801;BME280;41730;51.960;20.158;2023-04-24T11:16:55;98987.31;;;25.02;31.84
55801;BME280;41730;51.960;20.158;2023-04-24T11:19:38;98988.13;;;25.02;31.61
55801;BME280;41730;51.960;20.158;2023-04-24T11:22:20;98994.20;;;24.93;31.49
55801;BME280;41730;51.960;20.158;2023-04-24T11:25:02;98990.98;;;24.94;31.68
55801;BME280;41730;51.960;20.158;2023-04-24T11:27:43;98994.66;;;24.88;31.92
55801;BME280;41730;51.960;20.158;2023-04-24T11:30:19;98998.10;;;24.73;32.35
55801;BME280;41730;51.960;20.158;2023-04-24T11:33:08;98999.42;;;24.67;32.62
55801;BME280;41730;51.960;20.158;2023-04-24T11:35:42;98987.27;;;24.85;32.68
55801;BME280;41730;51.960;20.158;2023-04-24T11:38:18;98989.82;;;24.86;31.99
55801;BME280;41730;51.960;20.158;2023-04-24T11:40:54;98996.33;;;24.65;31.97
55801;BME280;41730;51.960;20.158;2023-04-24T11:43:27;98993.13;;;24.51;31.88
55801;BME280;41730;51.960;20.158;2023-04-24T11:46:02;98996.77;;;24.41;31.83
55801;BME280;41730;51.960;20.158;2023-04-24T11:48:42;98999.69;;;24.28;32.16
55801;BME280;41730;51.960;20.158;2023-04-24T11:51:25;99009.04;;;24.17;32.56
55801;BME280;41730;51.960;20.158;2023-04-24T11:54:09;99018.98;;;24.18;32.46
55801;BME280;41730;51.960;20.158;2023-04-24T11:56:55;99022.55;;;24.02;32.98
55801;BME280;41730;51.960;20.158;2023-04-24T11:59:30;99035.07;;;23.69;33.59
55801;BME280;41730;51.960;20.158;2023-04-24T12:02:07;99032.70;;;23.29;34.41
55801;BME280;41730;51.960;20.158;2023-04-24T12:04:42;99039.92;;;22.94;35.16
55801;BME280;41730;51.960;20.158;2023-04-24T12:07:20;99038.50;;;22.70;35.59
55801;BME280;41730;51.960;20.158;2023-04-24T12:10:00;99043.21;;;22.47;36.28
55801;BME280;41730;51.960;20.158;2023-04-24T12:12:33;99043.28;;;22.22;36.78
55801;BME280;41730;51.960;20.158;2023-04-24T12:15:09;99053.59;;;22.02;37.55
55801;BME280;41730;51.960;20.158;2023-04-24T12:17:47;99046.27;;;21.78;37.90
55801;BME280;41730;51.960;20.158;2023-04-24T12:20:26;99055.85;;;21.67;38.18
55801;BME280;41730;51.960;20.158;2023-04-24T12:22:59;99055.90;;;21.51;38.39
55801;BME280;41730;51.960;20.158;2023-04-24T12:25:54;99062.13;;;21.40;38.63
55801;BME280;41730;51.960;20.158;2023-04-24T12:28:39;99067.17;;;21.19;39.44
55801;BME280;41730;51.960;20.158;2023-04-24T12:31:12;99066.59;;;21.02;39.95
55801;BME280;41730;51.960;20.158;2023-04-24T12:33:45;99078.56;;;20.93;40.43
55801;BME280;41730;51.960;20.158;2023-04-24T12:36:17;99079.38;;;20.70;40.57
55801;BME280;41730;51.960;20.158;2023-04-24T12:38:59;99089.52;;;20.48;40.89
55801;BME280;41730;51.960;20.158;2023-04-24T12:41:32;99086.80;;;20.25;41.85
55801;BME280;41730;51.960;20.158;2023-04-24T12:44:10;99085.74;;;20.06;42.90
55801;BME280;41730;51.960;20.158;2023-04-24T12:46:43;99077.34;;;19.86;43.53
55801;BME280;41730;51.960;20.158;2023-04-24T12:49:15;99077.48;;;19.57;45.56
55801;BME280;41730;51.960;20.158;2023-04-24T12:51:50;99066.55;;;19.20;47.03
55801;BME280;41730;51.960;20.158;2023-04-24T12:54:26;99054.79;;;19.07;47.43
55801;BME280;41730;51.960;20.158;2023-04-24T12:57:04;99041.55;;;18.71;48.10
55801;BME280;41730;51.960;20.158;2023-04-24T12:59:37;99044.62;;;18.30;49.43
55801;BME280;41730;51.960;20.158;2023-04-24T13:02:11;99040.92;;;18.03;51.05
55801;BME280;41730;51.960;20.158;2023-04-24T13:04:49;99042.16;;;17.96;52.08
55801;BME280;41730;51.960;20.158;2023-04-24T13:07:23;99038.50;;;17.77;52.88
55801;BME280;41730;51.960;20.158;2023-04-24T13:10:03;99022.64;;;17.65;53.28
55801;BME280;41730;51.960;20.158;2023-04-24T13:12:39;99017.69;;;17.62;53.67
55801;BME280;41730;51.960;20.158;2023-04-24T13:15:20;99004.43;;;17.43;53.12
55801;BME280;41730;51.960;20.158;2023-04-24T13:17:54;98998.72;;;17.45;52.23
55801;BME280;41730;51.960;20.158;2023-04-24T13:20:26;98987.11;;;17.47;52.00
55801;BME280;41730;51.960;20.158;2023-04-24T13:22:59;98981.30;;;17.71;51.68
55801;BME280;41730;51.960;20.158;2023-04-24T13:25:35;98981.82;;;17.82;51.62
55801;BME280;41730;51.960;20.158;2023-04-24T13:28:09;98977.94;;;18.07;50.72
55801;BME280;41730;51.960;20.158;2023-04-24T13:30:50;98959.56;;;18.09;50.13
55801;BME280;41730;51.960;20.158;2023-04-24T13:33:23;98964.80;;;18.19;49.74
55801;BME280;41730;51.960;20.158;2023-04-24T13:35:58;98958.23;;;18.43;49.29
55801;BME280;41730;51.960;20.158;2023-04-24T13:38:38;98954.30;;;18.64;48.18
55801;BME280;41730;51.960;20.158;2023-04-24T13:41:22;98942.50;;;18.83;47.12
55801;BME280;41730;51.960;20.158;2023-04-24T13:44:08;98939.50;;;19.01;46.78
55801;BME280;41730;51.960;20.158;2023-04-24T13:46:44;98940.66;;;19.08;46.29
55801;BME280;41730;51.960;20.158;2023-04-24T13:49:23;98934.36;;;19.26;45.67
55801;BME280;41730;51.960;20.158;2023-04-24T13:52:10;98919.15;;;19.40;45.36
55801;BME280;41730;51.960;20.158;2023-04-24T13:54:48;98920.16;;;19.64;44.79
55801;BME280;41730;51.960;20.158;2023-04-24T13:57:35;98916.19;;;19.76;44.21
55801;BME280;41730;51.960;20.158;2023-04-24T14:00:12;98915.58;;;19.87;44.06